Richmond, VA (23242)

8:25 AM EST on December 28, 2014 (GMT -0500)
Tuckahoe Village | Change Station
CLOSE
Current Station
Personal Weather Station
Location: Henrico, VA
Elevation: 164 ft
Nearby Weather Stations

Elev 164 ft 37.61 °N, 77.62 °W | Updated 10 minutes ago

Partly Cloudy
Partly Cloudy
53.6 °F
Feels Like 53.6 °F
N
5.4
Wind Variable Wind from NW
Gusts 5.4 mph

Today
High -- | Low -- °F
--% Chance of Precip.
Yesterday
High -- | Low -- °F
Precip. -- in
7:24 AM 4:59 PM
Waxing Crescent, 47% visible
Pressure 30.01 in
Visibility 10.0 miles
Clouds Few 15000 ft
Mostly Cloudy 22000 ft
Overcast 30000 ft
Dew Point 41 °F
Humidity 62%
Rainfall 0.00 in
Snow Depth Not available.
UV 0 out of 12
Pollen .10 out of 12
Air Quality Not available.
Flu Activity Not available.
METAR KRIC 281254Z 18010KT 10SM FEW150 BKN220 OVC300 11/04 A2999 RMK AO2 SLP160 T01110039 $

More Conditions Fewer Conditions

Pressure 30.01 in
Visibility 10.0 miles
Clouds Few 15000 ft
Mostly Cloudy 22000 ft
Overcast 30000 ft
Dew Point 41 °F
Humidity 62%
Rainfall 0.00 in
Snow Depth Not available.
UV 0 out of 12
Pollen .10 out of 12
Air Quality Not available.
Flu Activity Not available.
METAR KRIC 281254Z 18010KT 10SM FEW150 BKN220 OVC300 11/04 A2999 RMK AO2 SLP160 T01110039 $

More Conditions Fewer Conditions

10-Day Weather Forecast

Almanac

Astronomy

Dec. 28, 2014 Rise Set
Actual Time
Civil Twilight
Nautical Twilight
Astronomical Twilight
Moon
Length of Visible Light
Length of Day
Tomorrow will be .
, % of the Moon is Illuminated

Today's Extremes

State Highs State Lows

Community

WunderPhotos

Upload Photos

1,781,258 photos uploaded!

WunderBlogs® & News

Nearby

Air Quality

  Air Quality AQ Index Pollutant
Not available.

Snow Depth

Station Depth Elevation

Earthquake Activity

City Distance Mag. Time & Date
Minimum magnitude displayed is 2.5.

Coastal Water Temperatures

Place Temperature

Nearby Weather Stations